sensor_id;sensor_type;location;lat;lon;timestamp;P1;durP1;ratioP1;P2;durP2;ratioP2
23088;SDS011;11713;48.506;8.966;2022-12-29T00:00:08;5.80;;;2.33;;
23088;SDS011;11713;48.506;8.966;2022-12-29T00:02:40;2.80;;;2.00;;
23088;SDS011;11713;48.506;8.966;2022-12-29T00:05:06;3.27;;;2.00;;
23088;SDS011;11713;48.506;8.966;2022-12-29T00:07:32;4.00;;;1.80;;
23088;SDS011;11713;48.506;8.966;2022-12-29T00:09:58;3.30;;;2.07;;
23088;SDS011;11713;48.506;8.966;2022-12-29T00:12:24;4.53;;;1.90;;
23088;SDS011;11713;48.506;8.966;2022-12-29T00:15:10;3.40;;;2.00;;
23088;SDS011;11713;48.506;8.966;2022-12-29T00:17:54;2.20;;;1.80;;
23088;SDS011;11713;48.506;8.966;2022-12-29T00:20:20;2.97;;;1.80;;
23088;SDS011;11713;48.506;8.966;2022-12-29T00:23:07;2.03;;;1.57;;
23088;SDS011;11713;48.506;8.966;2022-12-29T00:25:52;1.90;;;1.70;;
23088;SDS011;11713;48.506;8.966;2022-12-29T00:28:37;4.13;;;1.90;;
23088;SDS011;11713;48.506;8.966;2022-12-29T00:31:22;3.57;;;2.00;;
23088;SDS011;11713;48.506;8.966;2022-12-29T00:34:08;6.57;;;3.10;;
23088;SDS011;11713;48.506;8.966;2022-12-29T00:36:55;4.90;;;1.87;;
23088;SDS011;11713;48.506;8.966;2022-12-29T00:39:21;1.60;;;1.50;;
23088;SDS011;11713;48.506;8.966;2022-12-29T00:42:07;2.10;;;1.40;;
23088;SDS011;11713;48.506;8.966;2022-12-29T00:45:03;2.77;;;1.47;;
23088;SDS011;11713;48.506;8.966;2022-12-29T00:47:29;2.40;;;1.97;;
23088;SDS011;11713;48.506;8.966;2022-12-29T00:49:55;4.23;;;1.77;;
23088;SDS011;11713;48.506;8.966;2022-12-29T00:52:21;2.20;;;1.67;;
23088;SDS011;11713;48.506;8.966;2022-12-29T00:54:47;4.17;;;1.50;;
23088;SDS011;11713;48.506;8.966;2022-12-29T00:57:12;2.40;;;1.50;;
23088;SDS011;11713;48.506;8.966;2022-12-29T00:59:39;2.50;;;1.70;;
23088;SDS011;11713;48.506;8.966;2022-12-29T01:02:06;3.00;;;1.70;;
23088;SDS011;11713;48.506;8.966;2022-12-29T01:04:33;3.37;;;1.60;;
23088;SDS011;11713;48.506;8.966;2022-12-29T01:06:59;2.87;;;1.33;;
23088;SDS011;11713;48.506;8.966;2022-12-29T01:09:25;2.87;;;1.67;;
23088;SDS011;11713;48.506;8.966;2022-12-29T01:12:09;4.20;;;1.57;;
23088;SDS011;11713;48.506;8.966;2022-12-29T01:14:36;2.73;;;1.43;;
23088;SDS011;11713;48.506;8.966;2022-12-29T01:17:03;2.53;;;1.30;;
23088;SDS011;11713;48.506;8.966;2022-12-29T01:19:29;2.27;;;1.27;;
23088;SDS011;11713;48.506;8.966;2022-12-29T01:21:55;1.90;;;1.30;;
23088;SDS011;11713;48.506;8.966;2022-12-29T01:24:21;3.40;;;1.50;;
23088;SDS011;11713;48.506;8.966;2022-12-29T01:26:48;3.77;;;1.10;;
23088;SDS011;11713;48.506;8.966;2022-12-29T01:29:15;1.80;;;1.33;;
23088;SDS011;11713;48.506;8.966;2022-12-29T01:31:44;3.37;;;1.30;;
23088;SDS011;11713;48.506;8.966;2022-12-29T01:34:10;3.53;;;1.30;;
23088;SDS011;11713;48.506;8.966;2022-12-29T01:36:37;1.67;;;1.30;;
23088;SDS011;11713;48.506;8.966;2022-12-29T01:39:02;2.50;;;1.53;;
23088;SDS011;11713;48.506;8.966;2022-12-29T01:41:28;2.07;;;1.63;;
23088;SDS011;11713;48.506;8.966;2022-12-29T01:43:55;2.10;;;1.47;;
23088;SDS011;11713;48.506;8.966;2022-12-29T01:46:32;2.50;;;1.70;;
23088;SDS011;11713;48.506;8.966;2022-12-29T01:51:31;2.73;;;1.97;;
23088;SDS011;11713;48.506;8.966;2022-12-29T01:54:01;2.57;;;1.80;;
23088;SDS011;11713;48.506;8.966;2022-12-29T01:56:29;3.60;;;1.90;;
23088;SDS011;11713;48.506;8.966;2022-12-29T01:58:56;3.23;;;1.63;;
23088;SDS011;11713;48.506;8.966;2022-12-29T02:01:28;3.23;;;1.60;;
23088;SDS011;11713;48.506;8.966;2022-12-29T02:03:53;2.90;;;1.60;;
23088;SDS011;11713;48.506;8.966;2022-12-29T02:06:23;7.13;;;3.07;;
23088;SDS011;11713;48.506;8.966;2022-12-29T02:09:03;3.47;;;1.80;;
23088;SDS011;11713;48.506;8.966;2022-12-29T02:11:29;1.97;;;1.60;;
23088;SDS011;11713;48.506;8.966;2022-12-29T02:13:56;2.10;;;1.70;;
23088;SDS011;11713;48.506;8.966;2022-12-29T02:16:27;3.57;;;1.93;;
23088;SDS011;11713;48.506;8.966;2022-12-29T02:30:57;3.80;;;2.00;;
23088;SDS011;11713;48.506;8.966;2022-12-29T02:33:37;3.80;;;1.90;;
23088;SDS011;11713;48.506;8.966;2022-12-29T02:36:21;2.83;;;1.70;;
23088;SDS011;11713;48.506;8.966;2022-12-29T02:41:34;4.87;;;2.70;;
23088;SDS011;11713;48.506;8.966;2022-12-29T02:44:20;5.57;;;3.20;;
23088;SDS011;11713;48.506;8.966;2022-12-29T02:47:02;3.17;;;1.70;;
23088;SDS011;11713;48.506;8.966;2022-12-29T02:49:51;2.00;;;1.20;;
23088;SDS011;11713;48.506;8.966;2022-12-29T02:52:48;1.20;;;1.10;;
23088;SDS011;11713;48.506;8.966;2022-12-29T02:55:17;1.43;;;1.10;;
23088;SDS011;11713;48.506;8.966;2022-12-29T02:57:43;2.23;;;1.40;;
23088;SDS011;11713;48.506;8.966;2022-12-29T03:00:12;3.10;;;1.10;;
23088;SDS011;11713;48.506;8.966;2022-12-29T03:13:23;1.40;;;1.10;;
23088;SDS011;11713;48.506;8.966;2022-12-29T03:21:36;2.10;;;1.20;;
23088;SDS011;11713;48.506;8.966;2022-12-29T03:24:43;2.50;;;1.30;;
23088;SDS011;11713;48.506;8.966;2022-12-29T03:27:14;3.43;;;1.20;;
23088;SDS011;11713;48.506;8.966;2022-12-29T03:29:54;1.73;;;1.20;;
23088;SDS011;11713;48.506;8.966;2022-12-29T03:32:28;4.80;;;1.50;;
23088;SDS011;11713;48.506;8.966;2022-12-29T03:34:58;2.93;;;1.60;;
23088;SDS011;11713;48.506;8.966;2022-12-29T03:37:26;3.53;;;1.53;;
23088;SDS011;11713;48.506;8.966;2022-12-29T03:39:58;2.27;;;1.13;;
23088;SDS011;11713;48.506;8.966;2022-12-29T03:42:25;2.17;;;1.10;;
23088;SDS011;11713;48.506;8.966;2022-12-29T03:44:55;2.30;;;1.10;;
23088;SDS011;11713;48.506;8.966;2022-12-29T03:47:22;2.73;;;1.20;;
23088;SDS011;11713;48.506;8.966;2022-12-29T03:49:49;2.30;;;1.40;;
23088;SDS011;11713;48.506;8.966;2022-12-29T03:52:16;3.27;;;1.40;;
23088;SDS011;11713;48.506;8.966;2022-12-29T03:54:44;4.53;;;1.57;;
23088;SDS011;11713;48.506;8.966;2022-12-29T03:57:11;1.47;;;1.20;;
23088;SDS011;11713;48.506;8.966;2022-12-29T03:59:49;4.50;;;1.40;;
23088;SDS011;11713;48.506;8.966;2022-12-29T04:02:15;2.30;;;1.20;;
23088;SDS011;11713;48.506;8.966;2022-12-29T04:04:41;1.87;;;1.20;;
23088;SDS011;11713;48.506;8.966;2022-12-29T04:07:06;2.37;;;1.20;;
23088;SDS011;11713;48.506;8.966;2022-12-29T04:09:32;2.03;;;1.20;;
23088;SDS011;11713;48.506;8.966;2022-12-29T04:11:59;2.83;;;1.43;;
23088;SDS011;11713;48.506;8.966;2022-12-29T04:14:25;1.60;;;1.20;;
23088;SDS011;11713;48.506;8.966;2022-12-29T04:16:52;3.10;;;1.13;;
23088;SDS011;11713;48.506;8.966;2022-12-29T04:19:18;2.40;;;1.33;;
23088;SDS011;11713;48.506;8.966;2022-12-29T04:21:46;3.33;;;1.43;;
23088;SDS011;11713;48.506;8.966;2022-12-29T04:24:12;3.60;;;1.20;;
23088;SDS011;11713;48.506;8.966;2022-12-29T04:26:40;1.57;;;1.23;;
23088;SDS011;11713;48.506;8.966;2022-12-29T04:29:29;3.43;;;1.30;;
23088;SDS011;11713;48.506;8.966;2022-12-29T04:32:31;3.23;;;1.60;;
23088;SDS011;11713;48.506;8.966;2022-12-29T04:34:57;1.87;;;1.20;;
23088;SDS011;11713;48.506;8.966;2022-12-29T04:37:23;2.63;;;1.47;;
23088;SDS011;11713;48.506;8.966;2022-12-29T04:39:49;2.20;;;1.43;;
23088;SDS011;11713;48.506;8.966;2022-12-29T04:42:15;2.27;;;1.40;;
23088;SDS011;11713;48.506;8.966;2022-12-29T04:44:42;3.00;;;1.40;;
23088;SDS011;11713;48.506;8.966;2022-12-29T04:47:34;2.83;;;1.40;;
23088;SDS011;11713;48.506;8.966;2022-12-29T04:50:15;4.27;;;1.70;;
23088;SDS011;11713;48.506;8.966;2022-12-29T04:53:03;2.90;;;1.70;;
23088;SDS011;11713;48.506;8.966;2022-12-29T04:55:28;2.77;;;1.30;;
23088;SDS011;11713;48.506;8.966;2022-12-29T04:57:54;1.87;;;1.40;;
23088;SDS011;11713;48.506;8.966;2022-12-29T05:00:20;2.10;;;1.47;;
23088;SDS011;11713;48.506;8.966;2022-12-29T05:02:47;2.27;;;1.40;;
23088;SDS011;11713;48.506;8.966;2022-12-29T05:05:13;3.27;;;2.33;;
23088;SDS011;11713;48.506;8.966;2022-12-29T05:07:42;3.37;;;2.10;;
23088;SDS011;11713;48.506;8.966;2022-12-29T05:10:08;2.53;;;1.57;;
23088;SDS011;11713;48.506;8.966;2022-12-29T05:12:35;1.83;;;1.40;;
23088;SDS011;11713;48.506;8.966;2022-12-29T05:15:02;2.47;;;1.60;;
23088;SDS011;11713;48.506;8.966;2022-12-29T05:17:30;2.70;;;1.57;;
23088;SDS011;11713;48.506;8.966;2022-12-29T05:19:56;2.03;;;1.20;;
23088;SDS011;11713;48.506;8.966;2022-12-29T05:22:22;2.63;;;1.60;;
23088;SDS011;11713;48.506;8.966;2022-12-29T05:24:48;1.87;;;1.40;;
23088;SDS011;11713;48.506;8.966;2022-12-29T05:27:16;3.30;;;1.73;;
23088;SDS011;11713;48.506;8.966;2022-12-29T05:30:02;4.67;;;1.53;;
23088;SDS011;11713;48.506;8.966;2022-12-29T05:32:29;3.63;;;1.67;;
23088;SDS011;11713;48.506;8.966;2022-12-29T05:34:55;2.03;;;1.47;;
23088;SDS011;11713;48.506;8.966;2022-12-29T05:37:22;3.13;;;1.33;;
23088;SDS011;11713;48.506;8.966;2022-12-29T05:39:48;3.20;;;1.50;;
23088;SDS011;11713;48.506;8.966;2022-12-29T05:42:14;3.37;;;2.07;;
23088;SDS011;11713;48.506;8.966;2022-12-29T05:44:50;2.67;;;2.00;;
23088;SDS011;11713;48.506;8.966;2022-12-29T05:47:37;2.80;;;1.63;;
23088;SDS011;11713;48.506;8.966;2022-12-29T05:50:27;5.40;;;1.80;;
23088;SDS011;11713;48.506;8.966;2022-12-29T05:53:11;3.43;;;2.03;;
23088;SDS011;11713;48.506;8.966;2022-12-29T05:55:37;2.93;;;1.60;;
23088;SDS011;11713;48.506;8.966;2022-12-29T05:58:03;1.93;;;1.50;;
23088;SDS011;11713;48.506;8.966;2022-12-29T06:00:30;3.20;;;1.70;;
23088;SDS011;11713;48.506;8.966;2022-12-29T06:02:57;2.27;;;1.47;;
23088;SDS011;11713;48.506;8.966;2022-12-29T06:05:23;2.97;;;1.57;;
23088;SDS011;11713;48.506;8.966;2022-12-29T06:07:49;3.73;;;1.70;;
23088;SDS011;11713;48.506;8.966;2022-12-29T06:10:16;3.13;;;1.60;;
23088;SDS011;11713;48.506;8.966;2022-12-29T06:12:49;2.83;;;1.67;;
23088;SDS011;11713;48.506;8.966;2022-12-29T06:15:15;4.27;;;2.00;;
23088;SDS011;11713;48.506;8.966;2022-12-29T06:17:42;2.03;;;1.50;;
23088;SDS011;11713;48.506;8.966;2022-12-29T06:20:09;3.07;;;1.77;;
23088;SDS011;11713;48.506;8.966;2022-12-29T06:22:38;3.27;;;1.60;;
23088;SDS011;11713;48.506;8.966;2022-12-29T06:25:04;5.23;;;2.67;;
23088;SDS011;11713;48.506;8.966;2022-12-29T06:27:34;3.17;;;2.70;;
23088;SDS011;11713;48.506;8.966;2022-12-29T06:30:03;2.40;;;2.00;;
23088;SDS011;11713;48.506;8.966;2022-12-29T06:32:30;2.80;;;2.00;;
23088;SDS011;11713;48.506;8.966;2022-12-29T06:35:04;3.27;;;1.67;;
23088;SDS011;11713;48.506;8.966;2022-12-29T06:37:35;2.77;;;1.60;;
23088;SDS011;11713;48.506;8.966;2022-12-29T06:40:03;3.90;;;1.57;;
23088;SDS011;11713;48.506;8.966;2022-12-29T06:42:41;3.33;;;1.60;;
23088;SDS011;11713;48.506;8.966;2022-12-29T06:45:29;2.90;;;1.50;;
23088;SDS011;11713;48.506;8.966;2022-12-29T06:47:55;5.13;;;1.87;;
23088;SDS011;11713;48.506;8.966;2022-12-29T06:50:21;2.63;;;1.60;;
23088;SDS011;11713;48.506;8.966;2022-12-29T06:52:47;3.23;;;1.50;;
23088;SDS011;11713;48.506;8.966;2022-12-29T06:55:13;1.50;;;1.33;;
23088;SDS011;11713;48.506;8.966;2022-12-29T06:57:38;3.70;;;1.70;;
23088;SDS011;11713;48.506;8.966;2022-12-29T07:00:04;2.60;;;1.50;;
23088;SDS011;11713;48.506;8.966;2022-12-29T07:02:31;4.53;;;1.53;;
23088;SDS011;11713;48.506;8.966;2022-12-29T07:04:56;2.40;;;1.40;;
23088;SDS011;11713;48.506;8.966;2022-12-29T07:07:22;2.63;;;1.60;;
23088;SDS011;11713;48.506;8.966;2022-12-29T07:09:48;2.67;;;1.60;;
23088;SDS011;11713;48.506;8.966;2022-12-29T07:12:14;5.70;;;2.13;;
23088;SDS011;11713;48.506;8.966;2022-12-29T07:14:40;2.00;;;1.80;;
23088;SDS011;11713;48.506;8.966;2022-12-29T07:17:05;2.37;;;1.70;;
23088;SDS011;11713;48.506;8.966;2022-12-29T07:19:32;3.13;;;1.70;;
23088;SDS011;11713;48.506;8.966;2022-12-29T07:21:58;2.63;;;1.70;;
23088;SDS011;11713;48.506;8.966;2022-12-29T07:24:24;3.03;;;1.60;;
23088;SDS011;11713;48.506;8.966;2022-12-29T07:26:53;2.27;;;1.53;;
23088;SDS011;11713;48.506;8.966;2022-12-29T07:29:19;2.10;;;1.50;;
23088;SDS011;11713;48.506;8.966;2022-12-29T07:31:45;2.60;;;1.53;;
23088;SDS011;11713;48.506;8.966;2022-12-29T07:34:13;2.40;;;1.53;;
23088;SDS011;11713;48.506;8.966;2022-12-29T07:36:40;3.00;;;1.53;;
23088;SDS011;11713;48.506;8.966;2022-12-29T07:39:07;2.40;;;1.63;;
23088;SDS011;11713;48.506;8.966;2022-12-29T07:41:33;2.83;;;1.50;;
23088;SDS011;11713;48.506;8.966;2022-12-29T07:44:01;3.07;;;1.53;;
23088;SDS011;11713;48.506;8.966;2022-12-29T07:46:34;2.97;;;1.83;;
23088;SDS011;11713;48.506;8.966;2022-12-29T07:49:00;2.97;;;1.80;;
23088;SDS011;11713;48.506;8.966;2022-12-29T07:51:26;5.03;;;2.40;;
23088;SDS011;11713;48.506;8.966;2022-12-29T07:53:52;4.00;;;1.37;;
23088;SDS011;11713;48.506;8.966;2022-12-29T07:56:18;3.03;;;1.57;;
23088;SDS011;11713;48.506;8.966;2022-12-29T07:58:43;3.47;;;1.43;;
23088;SDS011;11713;48.506;8.966;2022-12-29T08:01:09;3.43;;;1.73;;
23088;SDS011;11713;48.506;8.966;2022-12-29T08:03:35;3.73;;;1.20;;
23088;SDS011;11713;48.506;8.966;2022-12-29T08:06:01;2.87;;;1.90;;
23088;SDS011;11713;48.506;8.966;2022-12-29T08:08:28;3.77;;;2.10;;
23088;SDS011;11713;48.506;8.966;2022-12-29T08:10:54;5.20;;;2.23;;
23088;SDS011;11713;48.506;8.966;2022-12-29T08:13:20;4.30;;;2.10;;
23088;SDS011;11713;48.506;8.966;2022-12-29T08:15:46;2.30;;;1.67;;
23088;SDS011;11713;48.506;8.966;2022-12-29T08:18:12;2.60;;;1.87;;
23088;SDS011;11713;48.506;8.966;2022-12-29T08:20:38;4.77;;;2.40;;
23088;SDS011;11713;48.506;8.966;2022-12-29T08:23:04;7.53;;;3.10;;
23088;SDS011;11713;48.506;8.966;2022-12-29T08:25:30;7.47;;;4.07;;
23088;SDS011;11713;48.506;8.966;2022-12-29T08:27:57;4.17;;;2.60;;
23088;SDS011;11713;48.506;8.966;2022-12-29T08:30:22;6.60;;;4.27;;
23088;SDS011;11713;48.506;8.966;2022-12-29T08:32:48;4.57;;;2.17;;
23088;SDS011;11713;48.506;8.966;2022-12-29T08:35:14;4.37;;;1.90;;
23088;SDS011;11713;48.506;8.966;2022-12-29T08:37:40;4.87;;;3.53;;
23088;SDS011;11713;48.506;8.966;2022-12-29T08:40:06;4.53;;;2.40;;
23088;SDS011;11713;48.506;8.966;2022-12-29T08:42:32;5.83;;;3.00;;
23088;SDS011;11713;48.506;8.966;2022-12-29T08:44:58;7.10;;;3.53;;
23088;SDS011;11713;48.506;8.966;2022-12-29T08:47:24;10.60;;;4.80;;
23088;SDS011;11713;48.506;8.966;2022-12-29T08:49:51;8.63;;;4.60;;
23088;SDS011;11713;48.506;8.966;2022-12-29T08:52:16;9.83;;;5.70;;
23088;SDS011;11713;48.506;8.966;2022-12-29T08:54:43;9.10;;;4.10;;
23088;SDS011;11713;48.506;8.966;2022-12-29T08:57:10;8.60;;;3.77;;
23088;SDS011;11713;48.506;8.966;2022-12-29T08:59:45;7.23;;;3.73;;
23088;SDS011;11713;48.506;8.966;2022-12-29T09:02:12;4.83;;;2.40;;
23088;SDS011;11713;48.506;8.966;2022-12-29T09:04:38;4.57;;;3.07;;
23088;SDS011;11713;48.506;8.966;2022-12-29T09:07:04;5.27;;;3.67;;
23088;SDS011;11713;48.506;8.966;2022-12-29T09:09:30;3.90;;;2.80;;
23088;SDS011;11713;48.506;8.966;2022-12-29T09:11:57;4.43;;;3.07;;
23088;SDS011;11713;48.506;8.966;2022-12-29T09:14:22;4.67;;;3.23;;
23088;SDS011;11713;48.506;8.966;2022-12-29T09:16:53;4.67;;;2.70;;
23088;SDS011;11713;48.506;8.966;2022-12-29T09:19:38;4.40;;;2.33;;
23088;SDS011;11713;48.506;8.966;2022-12-29T09:22:03;4.70;;;2.30;;
23088;SDS011;11713;48.506;8.966;2022-12-29T09:24:29;2.63;;;1.73;;
23088;SDS011;11713;48.506;8.966;2022-12-29T09:26:56;4.07;;;2.07;;
23088;SDS011;11713;48.506;8.966;2022-12-29T09:29:21;3.17;;;1.50;;
23088;SDS011;11713;48.506;8.966;2022-12-29T09:31:47;2.90;;;1.60;;
23088;SDS011;11713;48.506;8.966;2022-12-29T09:34:13;4.63;;;2.23;;
23088;SDS011;11713;48.506;8.966;2022-12-29T09:36:39;2.77;;;2.00;;
23088;SDS011;11713;48.506;8.966;2022-12-29T09:39:05;4.00;;;2.30;;
23088;SDS011;11713;48.506;8.966;2022-12-29T09:41:52;2.90;;;2.23;;
23088;SDS011;11713;48.506;8.966;2022-12-29T09:46:54;4.47;;;2.60;;
23088;SDS011;11713;48.506;8.966;2022-12-29T09:49:42;2.57;;;1.90;;
23088;SDS011;11713;48.506;8.966;2022-12-29T09:52:28;2.37;;;1.60;;
23088;SDS011;11713;48.506;8.966;2022-12-29T09:55:10;6.20;;;2.40;;
23088;SDS011;11713;48.506;8.966;2022-12-29T09:57:57;2.67;;;1.70;;
23088;SDS011;11713;48.506;8.966;2022-12-29T10:03:24;2.17;;;1.50;;
23088;SDS011;11713;48.506;8.966;2022-12-29T10:06:11;1.80;;;1.70;;
23088;SDS011;11713;48.506;8.966;2022-12-29T10:09:02;1.77;;;1.43;;
23088;SDS011;11713;48.506;8.966;2022-12-29T10:12:02;1.73;;;1.60;;
23088;SDS011;11713;48.506;8.966;2022-12-29T10:14:57;1.70;;;1.60;;
23088;SDS011;11713;48.506;8.966;2022-12-29T10:17:34;2.53;;;1.40;;
23088;SDS011;11713;48.506;8.966;2022-12-29T10:20:28;2.80;;;1.40;;
23088;SDS011;11713;48.506;8.966;2022-12-29T10:25:47;3.43;;;1.57;;
23088;SDS011;11713;48.506;8.966;2022-12-29T10:28:24;3.60;;;1.53;;
23088;SDS011;11713;48.506;8.966;2022-12-29T10:31:00;2.83;;;1.37;;
23088;SDS011;11713;48.506;8.966;2022-12-29T10:33:32;2.37;;;1.40;;
23088;SDS011;11713;48.506;8.966;2022-12-29T10:38:54;2.27;;;1.43;;
23088;SDS011;11713;48.506;8.966;2022-12-29T10:41:48;4.00;;;1.50;;
23088;SDS011;11713;48.506;8.966;2022-12-29T10:44:21;2.70;;;2.00;;
23088;SDS011;11713;48.506;8.966;2022-12-29T10:46:54;3.33;;;2.03;;
23088;SDS011;11713;48.506;8.966;2022-12-29T10:49:26;1.50;;;1.40;;
23088;SDS011;11713;48.506;8.966;2022-12-29T10:51:57;2.93;;;1.50;;
23088;SDS011;11713;48.506;8.966;2022-12-29T10:57:11;2.87;;;1.67;;
23088;SDS011;11713;48.506;8.966;2022-12-29T11:00:12;3.30;;;1.43;;
23088;SDS011;11713;48.506;8.966;2022-12-29T11:08:22;2.23;;;1.50;;
23088;SDS011;11713;48.506;8.966;2022-12-29T11:11:02;3.27;;;1.70;;
23088;SDS011;11713;48.506;8.966;2022-12-29T11:13:31;4.53;;;2.27;;
23088;SDS011;11713;48.506;8.966;2022-12-29T11:15:59;2.03;;;1.70;;
23088;SDS011;11713;48.506;8.966;2022-12-29T11:20:57;4.53;;;2.27;;
23088;SDS011;11713;48.506;8.966;2022-12-29T11:26:36;3.27;;;2.30;;
23088;SDS011;11713;48.506;8.966;2022-12-29T11:28:41;3.13;;;2.00;;
23088;SDS011;11713;48.506;8.966;2022-12-29T11:31:09;4.20;;;2.07;;
23088;SDS011;11713;48.506;8.966;2022-12-29T11:33:36;2.33;;;1.60;;
23088;SDS011;11713;48.506;8.966;2022-12-29T11:36:07;4.07;;;1.83;;
23088;SDS011;11713;48.506;8.966;2022-12-29T11:38:42;2.50;;;1.70;;
23088;SDS011;11713;48.506;8.966;2022-12-29T11:41:18;4.57;;;2.10;;
23088;SDS011;11713;48.506;8.966;2022-12-29T11:43:50;2.80;;;1.60;;
23088;SDS011;11713;48.506;8.966;2022-12-29T11:46:22;3.27;;;1.80;;
23088;SDS011;11713;48.506;8.966;2022-12-29T11:48:51;2.40;;;1.60;;
23088;SDS011;11713;48.506;8.966;2022-12-29T11:51:22;4.20;;;1.93;;
23088;SDS011;11713;48.506;8.966;2022-12-29T11:53:51;3.47;;;1.90;;
23088;SDS011;11713;48.506;8.966;2022-12-29T11:56:32;4.27;;;2.60;;
23088;SDS011;11713;48.506;8.966;2022-12-29T11:59:34;2.70;;;2.00;;
23088;SDS011;11713;48.506;8.966;2022-12-29T12:05:21;3.80;;;2.27;;
23088;SDS011;11713;48.506;8.966;2022-12-29T12:10:43;3.90;;;2.80;;
23088;SDS011;11713;48.506;8.966;2022-12-29T12:13:21;4.60;;;3.30;;
23088;SDS011;11713;48.506;8.966;2022-12-29T12:15:54;7.17;;;2.60;;
23088;SDS011;11713;48.506;8.966;2022-12-29T12:18:31;6.87;;;2.73;;
23088;SDS011;11713;48.506;8.966;2022-12-29T12:21:29;2.77;;;1.70;;
23088;SDS011;11713;48.506;8.966;2022-12-29T12:24:13;4.60;;;2.17;;
23088;SDS011;11713;48.506;8.966;2022-12-29T12:26:55;2.53;;;2.03;;
23088;SDS011;11713;48.506;8.966;2022-12-29T12:34:37;3.20;;;1.97;;
23088;SDS011;11713;48.506;8.966;2022-12-29T13:00:02;4.83;;;2.57;;
23088;SDS011;11713;48.506;8.966;2022-12-29T13:02:49;6.60;;;3.00;;
23088;SDS011;11713;48.506;8.966;2022-12-29T13:08:30;6.43;;;2.60;;
23088;SDS011;11713;48.506;8.966;2022-12-29T13:13:58;7.30;;;4.50;;
23088;SDS011;11713;48.506;8.966;2022-12-29T13:30:28;4.40;;;2.87;;
23088;SDS011;11713;48.506;8.966;2022-12-29T13:33:21;6.27;;;3.57;;
23088;SDS011;11713;48.506;8.966;2022-12-29T13:41:02;4.63;;;2.90;;
23088;SDS011;11713;48.506;8.966;2022-12-29T13:43:34;3.60;;;2.70;;
23088;SDS011;11713;48.506;8.966;2022-12-29T13:46:05;4.53;;;2.33;;
23088;SDS011;11713;48.506;8.966;2022-12-29T13:48:57;2.90;;;2.53;;
23088;SDS011;11713;48.506;8.966;2022-12-29T13:51:55;2.20;;;1.93;;
23088;SDS011;11713;48.506;8.966;2022-12-29T13:57:07;3.83;;;2.20;;
23088;SDS011;11713;48.506;8.966;2022-12-29T13:59:54;3.57;;;2.30;;
23088;SDS011;11713;48.506;8.966;2022-12-29T14:02:50;4.53;;;1.87;;
23088;SDS011;11713;48.506;8.966;2022-12-29T14:06:03;2.77;;;1.90;;
23088;SDS011;11713;48.506;8.966;2022-12-29T14:08:31;2.63;;;1.87;;
23088;SDS011;11713;48.506;8.966;2022-12-29T14:11:01;2.93;;;2.20;;
23088;SDS011;11713;48.506;8.966;2022-12-29T14:13:39;2.60;;;2.10;;
23088;SDS011;11713;48.506;8.966;2022-12-29T14:16:07;2.73;;;2.20;;
23088;SDS011;11713;48.506;8.966;2022-12-29T14:18:46;6.47;;;2.20;;
23088;SDS011;11713;48.506;8.966;2022-12-29T14:28:56;3.10;;;2.20;;
23088;SDS011;11713;48.506;8.966;2022-12-29T14:31:40;5.27;;;2.10;;
23088;SDS011;11713;48.506;8.966;2022-12-29T14:39:26;2.33;;;2.07;;
23088;SDS011;11713;48.506;8.966;2022-12-29T14:44:45;3.50;;;2.13;;
23088;SDS011;11713;48.506;8.966;2022-12-29T14:47:16;3.00;;;1.73;;
23088;SDS011;11713;48.506;8.966;2022-12-29T14:49:53;2.97;;;2.00;;
23088;SDS011;11713;48.506;8.966;2022-12-29T14:52:25;3.33;;;1.90;;
23088;SDS011;11713;48.506;8.966;2022-12-29T14:54:54;2.93;;;1.80;;
23088;SDS011;11713;48.506;8.966;2022-12-29T14:57:28;2.13;;;1.73;;
23088;SDS011;11713;48.506;8.966;2022-12-29T15:00:02;4.17;;;1.80;;
23088;SDS011;11713;48.506;8.966;2022-12-29T15:03:04;3.13;;;1.80;;
23088;SDS011;11713;48.506;8.966;2022-12-29T15:05:36;4.43;;;2.33;;
23088;SDS011;11713;48.506;8.966;2022-12-29T15:08:17;7.57;;;2.93;;
23088;SDS011;11713;48.506;8.966;2022-12-29T15:13:31;4.57;;;2.17;;
23088;SDS011;11713;48.506;8.966;2022-12-29T15:16:03;5.23;;;2.53;;
23088;SDS011;11713;48.506;8.966;2022-12-29T15:18:30;2.40;;;1.70;;
23088;SDS011;11713;48.506;8.966;2022-12-29T15:21:00;3.07;;;2.00;;
23088;SDS011;11713;48.506;8.966;2022-12-29T15:23:33;4.57;;;2.67;;
23088;SDS011;11713;48.506;8.966;2022-12-29T15:26:04;5.50;;;3.40;;
23088;SDS011;11713;48.506;8.966;2022-12-29T15:28:42;4.27;;;3.17;;
23088;SDS011;11713;48.506;8.966;2022-12-29T15:31:15;7.87;;;4.93;;
23088;SDS011;11713;48.506;8.966;2022-12-29T15:33:45;10.50;;;5.07;;
23088;SDS011;11713;48.506;8.966;2022-12-29T15:36:19;7.30;;;3.70;;
23088;SDS011;11713;48.506;8.966;2022-12-29T15:38:47;5.20;;;2.90;;
23088;SDS011;11713;48.506;8.966;2022-12-29T15:46:42;4.57;;;3.50;;
23088;SDS011;11713;48.506;8.966;2022-12-29T15:49:08;5.30;;;4.03;;
23088;SDS011;11713;48.506;8.966;2022-12-29T15:51:39;3.83;;;3.00;;
23088;SDS011;11713;48.506;8.966;2022-12-29T15:54:12;4.33;;;3.63;;
23088;SDS011;11713;48.506;8.966;2022-12-29T15:56:45;5.80;;;3.67;;
23088;SDS011;11713;48.506;8.966;2022-12-29T15:59:22;6.00;;;3.93;;
23088;SDS011;11713;48.506;8.966;2022-12-29T16:01:49;5.50;;;3.77;;
23088;SDS011;11713;48.506;8.966;2022-12-29T16:04:15;6.03;;;3.80;;
23088;SDS011;11713;48.506;8.966;2022-12-29T16:06:54;4.70;;;3.63;;
23088;SDS011;11713;48.506;8.966;2022-12-29T16:12:21;5.60;;;2.50;;
23088;SDS011;11713;48.506;8.966;2022-12-29T16:14:55;3.87;;;2.53;;
23088;SDS011;11713;48.506;8.966;2022-12-29T16:17:30;5.53;;;3.07;;
23088;SDS011;11713;48.506;8.966;2022-12-29T16:19:59;4.17;;;3.40;;
23088;SDS011;11713;48.506;8.966;2022-12-29T16:22:31;7.43;;;5.00;;
23088;SDS011;11713;48.506;8.966;2022-12-29T16:25:04;6.07;;;5.30;;
23088;SDS011;11713;48.506;8.966;2022-12-29T16:27:46;7.90;;;5.10;;
23088;SDS011;11713;48.506;8.966;2022-12-29T16:32:48;6.97;;;6.27;;
23088;SDS011;11713;48.506;8.966;2022-12-29T16:37:42;10.00;;;8.07;;
23088;SDS011;11713;48.506;8.966;2022-12-29T16:43:24;12.83;;;7.03;;
23088;SDS011;11713;48.506;8.966;2022-12-29T16:48:19;13.33;;;7.13;;
23088;SDS011;11713;48.506;8.966;2022-12-29T16:50:47;11.47;;;6.87;;
23088;SDS011;11713;48.506;8.966;2022-12-29T16:53:23;10.23;;;6.53;;
23088;SDS011;11713;48.506;8.966;2022-12-29T16:56:16;8.50;;;5.20;;
23088;SDS011;11713;48.506;8.966;2022-12-29T16:58:46;4.80;;;3.13;;
23088;SDS011;11713;48.506;8.966;2022-12-29T17:01:19;4.53;;;3.60;;
23088;SDS011;11713;48.506;8.966;2022-12-29T17:03:48;7.30;;;4.27;;
23088;SDS011;11713;48.506;8.966;2022-12-29T17:06:26;6.27;;;4.10;;
23088;SDS011;11713;48.506;8.966;2022-12-29T17:08:52;5.50;;;3.37;;
23088;SDS011;11713;48.506;8.966;2022-12-29T17:11:28;5.07;;;3.33;;
23088;SDS011;11713;48.506;8.966;2022-12-29T17:17:15;6.77;;;4.27;;
23088;SDS011;11713;48.506;8.966;2022-12-29T17:19:51;7.03;;;4.70;;
23088;SDS011;11713;48.506;8.966;2022-12-29T17:22:23;6.83;;;4.53;;
23088;SDS011;11713;48.506;8.966;2022-12-29T17:24:51;7.13;;;4.53;;
23088;SDS011;11713;48.506;8.966;2022-12-29T17:27:26;4.47;;;3.73;;
23088;SDS011;11713;48.506;8.966;2022-12-29T17:29:56;8.60;;;5.97;;
23088;SDS011;11713;48.506;8.966;2022-12-29T17:32:25;4.10;;;3.20;;
23088;SDS011;11713;48.506;8.966;2022-12-29T17:34:52;4.63;;;2.70;;
23088;SDS011;11713;48.506;8.966;2022-12-29T17:37:35;3.73;;;2.70;;
23088;SDS011;11713;48.506;8.966;2022-12-29T17:40:03;5.00;;;3.60;;
23088;SDS011;11713;48.506;8.966;2022-12-29T17:42:31;5.83;;;3.60;;
23088;SDS011;11713;48.506;8.966;2022-12-29T17:45:00;5.27;;;3.67;;
23088;SDS011;11713;48.506;8.966;2022-12-29T17:47:27;4.70;;;3.47;;
23088;SDS011;11713;48.506;8.966;2022-12-29T17:49:52;7.70;;;4.53;;
23088;SDS011;11713;48.506;8.966;2022-12-29T17:52:19;10.83;;;7.60;;
23088;SDS011;11713;48.506;8.966;2022-12-29T17:54:46;7.47;;;6.30;;
23088;SDS011;11713;48.506;8.966;2022-12-29T17:57:15;5.30;;;4.20;;